Check out our new PWSWeather beta!
PWSweather.com
Personal Weather Stations
Station Observations
ANTHEMNP
Anthem North Parkside, Anthem, AZ 85086

Anthem North ParksideAnthem, AZ 85086

Lat: 33.876464, Lon: -112.13861199999997

Elevation: 1930

Station Type: Davis Vantage Vue with Pro 2 console

http://www.azjerry.com/ANPW/wxindex.php

High Low Average
Temperature 109.6°F43.1°C 82.1°F27.8°C 96.2°F35.7°C
Dew Point 38.0°F3.3°C 29.0°F-1.7°C 34.4°F1.3°C
Winds 8.7 mph 14.0 kmh Calm Calm 3.0 mph SSE4.8 kmh SSE
Wind Gusts 17.0 mph27.4 kmh -- 8.0 mph12.9 kmh
Humidity 18% 7% 12%
Pressure 29.86 in1011.2 mb 29.71 in1006.1 mb -
Precipitation 0.00 in0.0 mm - -
Hour Temp Dew Point Humidity Winds Wind Gusts Pressure Precip Precip Rate Daily Precip Total
12:00 AM 84.9°F29.4°C 35.0°F1.7°C 17% Calm Calm 1.0 mph1.6 kmh 29.81 in1009.5 mb 0.00 in0.0 mm 0.00 in0.0 mm 0.00 in0.0 mm
12:10 AM 83.6°F28.7°C 34.0°F1.1°C 17% Calm Calm 1.0 mph1.6 kmh 29.81 in1009.5 mb 0.00 in0.0 mm 0.00 in0.0 mm 0.00 in0.0 mm
12:20 AM 83.8°F28.8°C 35.0°F1.7°C 17% 0.2 mph SE0.3 kmh SE 1.0 mph1.6 kmh 29.81 in1009.5 mb 0.00 in0.0 mm 0.00 in0.0 mm 0.00 in0.0 mm
12:30 AM 83.8°F28.8°C 35.0°F1.7°C 17% Calm Calm 1.0 mph1.6 kmh 29.80 in1009.1 mb 0.00 in0.0 mm 0.00 in0.0 mm 0.00 in0.0 mm
12:40 AM 84.8°F29.3°C 34.0°F1.1°C 16% 0.6 mph NNE1.0 kmh NNE 2.0 mph3.2 kmh 29.80 in1009.1 mb 0.00 in0.0 mm 0.00 in0.0 mm 0.00 in0.0 mm
12:50 AM 84.8°F29.3°C 34.0°F1.1°C 16% 0.4 mph NNE0.6 kmh NNE 2.0 mph3.2 kmh 29.80 in1009.1 mb 0.00 in0.0 mm 0.00 in0.0 mm 0.00 in0.0 mm
01:00 AM 84.9°F29.4°C 34.0°F1.1°C 16% 1.3 mph N2.1 kmh N 3.0 mph4.8 kmh 29.80 in1009.1 mb 0.00 in0.0 mm 0.00 in0.0 mm 0.00 in0.0 mm
01:10 AM 84.9°F29.4°C 34.0°F1.1°C 16% 2.5 mph NE4.0 kmh NE 6.0 mph9.7 kmh 29.80 in1009.1 mb 0.00 in0.0 mm 0.00 in0.0 mm 0.00 in0.0 mm
01:20 AM 85.0°F29.4°C 34.0°F1.1°C 16% 2.9 mph N4.7 kmh N 5.0 mph8.0 kmh 29.80 in1009.1 mb 0.00 in0.0 mm 0.00 in0.0 mm 0.00 in0.0 mm
01:30 AM 85.2°F29.6°C 34.0°F1.1°C 16% 2.4 mph N3.9 kmh N 7.0 mph11.3 kmh 29.80 in1009.1 mb 0.00 in0.0 mm 0.00 in0.0 mm 0.00 in0.0 mm
01:40 AM 85.1°F29.5°C 34.0°F1.1°C 16% 2.2 mph N3.5 kmh N 5.0 mph8.0 kmh 29.80 in1009.1 mb 0.00 in0.0 mm 0.00 in0.0 mm 0.00 in0.0 mm
01:50 AM 85.4°F29.7°C 34.0°F1.1°C 16% 3.0 mph NNW4.8 kmh NNW 6.0 mph9.7 kmh 29.80 in1009.1 mb 0.00 in0.0 mm 0.00 in0.0 mm 0.00 in0.0 mm
02:00 AM 85.5°F29.7°C 34.0°F1.1°C 16% 4.2 mph N6.8 kmh N 7.0 mph11.3 kmh 29.80 in1009.1 mb 0.00 in0.0 mm 0.00 in0.0 mm 0.00 in0.0 mm
02:10 AM 85.5°F29.7°C 34.0°F1.1°C 16% 5.0 mph NNE8.0 kmh NNE 10.0 mph16.1 kmh 29.80 in1009.1 mb 0.00 in0.0 mm 0.00 in0.0 mm 0.00 in0.0 mm
02:20 AM 85.3°F29.6°C 34.0°F1.1°C 16% 5.4 mph NE8.7 kmh NE 11.0 mph17.7 kmh 29.80 in1009.1 mb 0.00 in0.0 mm 0.00 in0.0 mm 0.00 in0.0 mm
02:30 AM 85.3°F29.6°C 34.0°F1.1°C 16% 4.9 mph NE7.9 kmh NE 8.0 mph12.9 kmh 29.80 in1009.1 mb 0.00 in0.0 mm 0.00 in0.0 mm 0.00 in0.0 mm
02:40 AM 84.8°F29.3°C 34.0°F1.1°C 16% 5.3 mph NNE8.5 kmh NNE 11.0 mph17.7 kmh 29.80 in1009.1 mb 0.00 in0.0 mm 0.00 in0.0 mm 0.00 in0.0 mm
02:50 AM 84.7°F29.3°C 34.0°F1.1°C 16% 6.0 mph NNE9.7 kmh NNE 11.0 mph17.7 kmh 29.80 in1009.1 mb 0.00 in0.0 mm 0.00 in0.0 mm 0.00 in0.0 mm
03:00 AM 84.7°F29.3°C 34.0°F1.1°C 16% 6.5 mph NNE10.5 kmh NNE 10.0 mph16.1 kmh 29.80 in1009.1 mb 0.00 in0.0 mm 0.00 in0.0 mm 0.00 in0.0 mm
03:10 AM 84.9°F29.4°C 34.0°F1.1°C 16% 6.8 mph NNW10.9 kmh NNW 13.0 mph20.9 kmh 29.80 in1009.1 mb 0.00 in0.0 mm 0.00 in0.0 mm 0.00 in0.0 mm
03:20 AM 84.2°F29.0°C 33.0°F0.6°C 16% 6.5 mph NNW10.5 kmh NNW 14.0 mph22.5 kmh 29.80 in1009.1 mb 0.00 in0.0 mm 0.00 in0.0 mm 0.00 in0.0 mm
03:30 AM 84.1°F28.9°C 33.0°F0.6°C 16% 5.2 mph N8.4 kmh N 9.0 mph14.5 kmh 29.80 in1009.1 mb 0.00 in0.0 mm 0.00 in0.0 mm 0.00 in0.0 mm
03:40 AM 84.0°F28.9°C 33.0°F0.6°C 16% 7.0 mph N11.3 kmh N 13.0 mph20.9 kmh 29.80 in1009.1 mb 0.00 in0.0 mm 0.00 in0.0 mm 0.00 in0.0 mm
03:50 AM 83.4°F28.6°C 34.0°F1.1°C 17% 7.5 mph NNE12.1 kmh NNE 13.0 mph20.9 kmh 29.80 in1009.1 mb 0.00 in0.0 mm 0.00 in0.0 mm 0.00 in0.0 mm
04:00 AM 82.9°F28.3°C 34.0°F1.1°C 17% 6.5 mph NW10.5 kmh NW 14.0 mph22.5 kmh 29.81 in1009.5 mb 0.00 in0.0 mm 0.00 in0.0 mm 0.00 in0.0 mm
04:10 AM 82.6°F28.1°C 34.0°F1.1°C 17% 5.9 mph NE9.5 kmh NE 12.0 mph19.3 kmh 29.81 in1009.5 mb 0.00 in0.0 mm 0.00 in0.0 mm 0.00 in0.0 mm
04:20 AM 83.2°F28.4°C 34.0°F1.1°C 17% 5.8 mph NNE9.3 kmh NNE 10.0 mph16.1 kmh 29.81 in1009.5 mb 0.00 in0.0 mm 0.00 in0.0 mm 0.00 in0.0 mm
04:30 AM 83.4°F28.6°C 34.0°F1.1°C 17% 6.7 mph N10.8 kmh N 12.0 mph19.3 kmh 29.80 in1009.1 mb 0.00 in0.0 mm 0.00 in0.0 mm 0.00 in0.0 mm
04:40 AM 82.6°F28.1°C 34.0°F1.1°C 17% 5.4 mph NNW8.7 kmh NNW 10.0 mph16.1 kmh 29.81 in1009.5 mb 0.00 in0.0 mm 0.00 in0.0 mm 0.00 in0.0 mm
04:50 AM 82.3°F27.9°C 33.0°F0.6°C 17% 4.8 mph NNE7.7 kmh NNE 14.0 mph22.5 kmh 29.82 in1009.8 mb 0.00 in0.0 mm 0.00 in0.0 mm 0.00 in0.0 mm
05:00 AM 82.1°F27.8°C 35.0°F1.7°C 18% 6.1 mph E9.8 kmh E 11.0 mph17.7 kmh 29.82 in1009.8 mb 0.00 in0.0 mm 0.00 in0.0 mm 0.00 in0.0 mm
05:10 AM 82.3°F27.9°C 35.0°F1.7°C 18% 6.9 mph N11.1 kmh N 14.0 mph22.5 kmh 29.82 in1009.8 mb 0.00 in0.0 mm 0.00 in0.0 mm 0.00 in0.0 mm
05:20 AM 82.4°F28.0°C 33.0°F0.6°C 17% 7.5 mph N12.1 kmh N 12.0 mph19.3 kmh 29.82 in1009.8 mb 0.00 in0.0 mm 0.00 in0.0 mm 0.00 in0.0 mm
05:30 AM 82.7°F28.2°C 34.0°F1.1°C 17% 7.7 mph NNW12.4 kmh NNW 17.0 mph27.4 kmh 29.82 in1009.8 mb 0.00 in0.0 mm 0.00 in0.0 mm 0.00 in0.0 mm
05:40 AM 83.1°F28.4°C 34.0°F1.1°C 17% 8.6 mph NE13.8 kmh NE 17.0 mph27.4 kmh 29.82 in1009.8 mb 0.00 in0.0 mm 0.00 in0.0 mm 0.00 in0.0 mm
05:50 AM 83.1°F28.4°C 34.0°F1.1°C 17% 7.4 mph NE11.9 kmh NE 15.0 mph24.1 kmh 29.82 in1009.8 mb 0.00 in0.0 mm 0.00 in0.0 mm 0.00 in0.0 mm
06:00 AM 83.0°F28.3°C 34.0°F1.1°C 17% 8.6 mph NE13.8 kmh NE 16.0 mph25.7 kmh 29.82 in1009.8 mb 0.00 in0.0 mm 0.00 in0.0 mm 0.00 in0.0 mm
06:10 AM 83.0°F28.3°C 34.0°F1.1°C 17% 8.5 mph N13.7 kmh N 16.0 mph25.7 kmh 29.83 in1010.2 mb 0.00 in0.0 mm 0.00 in0.0 mm 0.00 in0.0 mm
06:20 AM 83.2°F28.4°C 34.0°F1.1°C 17% 7.6 mph NW12.2 kmh NW 16.0 mph25.7 kmh 29.83 in1010.2 mb 0.00 in0.0 mm 0.00 in0.0 mm 0.00 in0.0 mm
06:30 AM 83.5°F28.6°C 34.0°F1.1°C 17% 5.7 mph NNE9.2 kmh NNE 13.0 mph20.9 kmh 29.83 in1010.2 mb 0.00 in0.0 mm 0.00 in0.0 mm 0.00 in0.0 mm
06:40 AM 84.5°F29.2°C 35.0°F1.7°C 17% 7.4 mph NE11.9 kmh NE 14.0 mph22.5 kmh 29.84 in1010.5 mb 0.00 in0.0 mm 0.00 in0.0 mm 0.00 in0.0 mm
06:50 AM 85.1°F29.5°C 34.0°F1.1°C 16% 5.9 mph NE9.5 kmh NE 12.0 mph19.3 kmh 29.84 in1010.5 mb 0.00 in0.0 mm 0.00 in0.0 mm 0.00 in0.0 mm
07:00 AM 85.4°F29.7°C 34.0°F1.1°C 16% 3.6 mph NE5.8 kmh NE 7.0 mph11.3 kmh 29.84 in1010.5 mb 0.00 in0.0 mm 0.00 in0.0 mm 0.00 in0.0 mm
07:10 AM 86.0°F30.0°C 35.0°F1.7°C 16% 4.6 mph N7.4 kmh N 10.0 mph16.1 kmh 29.85 in1010.8 mb 0.00 in0.0 mm 0.00 in0.0 mm 0.00 in0.0 mm
07:20 AM 87.3°F30.7°C 34.0°F1.1°C 15% 4.8 mph ENE7.7 kmh ENE 11.0 mph17.7 kmh 29.85 in1010.8 mb 0.00 in0.0 mm 0.00 in0.0 mm 0.00 in0.0 mm
07:30 AM 88.4°F31.3°C 35.0°F1.7°C 15% 6.0 mph N9.7 kmh N 12.0 mph19.3 kmh 29.85 in1010.8 mb 0.00 in0.0 mm 0.00 in0.0 mm 0.00 in0.0 mm
07:40 AM 89.6°F32.0°C 34.0°F1.1°C 14% 7.1 mph N11.4 kmh N 13.0 mph20.9 kmh 29.85 in1010.8 mb 0.00 in0.0 mm 0.00 in0.0 mm 0.00 in0.0 mm
07:50 AM 90.4°F32.4°C 35.0°F1.7°C 14% 7.8 mph N12.6 kmh N 14.0 mph22.5 kmh 29.86 in1011.2 mb 0.00 in0.0 mm 0.00 in0.0 mm 0.00 in0.0 mm
08:00 AM 91.4°F33.0°C 34.0°F1.1°C 13% 7.8 mph ENE12.6 kmh ENE 16.0 mph25.7 kmh 29.85 in1010.8 mb 0.00 in0.0 mm 0.00 in0.0 mm 0.00 in0.0 mm
08:10 AM 92.8°F33.8°C 35.0°F1.7°C 13% 7.8 mph NE12.6 kmh NE 15.0 mph24.1 kmh 29.85 in1010.8 mb 0.00 in0.0 mm 0.00 in0.0 mm 0.00 in0.0 mm
08:20 AM 93.9°F34.4°C 34.0°F1.1°C 12% 8.7 mph NNW14.0 kmh NNW 15.0 mph24.1 kmh 29.85 in1010.8 mb 0.00 in0.0 mm 0.00 in0.0 mm 0.00 in0.0 mm
08:30 AM 94.9°F34.9°C 35.0°F1.7°C 12% 7.5 mph NNE12.1 kmh NNE 14.0 mph22.5 kmh 29.85 in1010.8 mb 0.00 in0.0 mm 0.00 in0.0 mm 0.00 in0.0 mm
08:40 AM 96.0°F35.6°C 33.0°F0.6°C 11% 5.2 mph NNE8.4 kmh NNE 10.0 mph16.1 kmh 29.85 in1010.8 mb 0.00 in0.0 mm 0.00 in0.0 mm 0.00 in0.0 mm
08:50 AM 96.6°F35.9°C 34.0°F1.1°C 11% 5.3 mph NNE8.5 kmh NNE 12.0 mph19.3 kmh 29.86 in1011.2 mb 0.00 in0.0 mm 0.00 in0.0 mm 0.00 in0.0 mm
09:00 AM 97.2°F36.2°C 34.0°F1.1°C 11% 5.4 mph N8.7 kmh N 12.0 mph19.3 kmh 29.85 in1010.8 mb 0.00 in0.0 mm 0.00 in0.0 mm 0.00 in0.0 mm
09:10 AM 98.0°F36.7°C 35.0°F1.7°C 11% 4.1 mph NNE6.6 kmh NNE 8.0 mph12.9 kmh 29.85 in1010.8 mb 0.00 in0.0 mm 0.00 in0.0 mm 0.00 in0.0 mm
09:20 AM 99.1°F37.3°C 34.0°F1.1°C 10% 3.0 mph N4.8 kmh N 7.0 mph11.3 kmh 29.85 in1010.8 mb 0.00 in0.0 mm 0.00 in0.0 mm 0.00 in0.0 mm
09:30 AM 99.7°F37.6°C 34.0°F1.1°C 10% 3.8 mph NE6.1 kmh NE 9.0 mph14.5 kmh 29.85 in1010.8 mb 0.00 in0.0 mm 0.00 in0.0 mm 0.00 in0.0 mm
09:40 AM 100.5°F38.1°C 35.0°F1.7°C 10% 2.7 mph N4.3 kmh N 9.0 mph14.5 kmh 29.85 in1010.8 mb 0.00 in0.0 mm 0.00 in0.0 mm 0.00 in0.0 mm
09:50 AM 101.1°F38.4°C 35.0°F1.7°C 10% 2.7 mph NNE4.3 kmh NNE 9.0 mph14.5 kmh 29.85 in1010.8 mb 0.00 in0.0 mm 0.00 in0.0 mm 0.00 in0.0 mm
10:00 AM 102.2°F39.0°C 36.0°F2.2°C 10% 0.7 mph NW1.1 kmh NW 5.0 mph8.0 kmh 29.85 in1010.8 mb 0.00 in0.0 mm 0.00 in0.0 mm 0.00 in0.0 mm
10:10 AM 104.3°F40.2°C 32.0°F0.0°C 8% 0.2 mph NNE0.3 kmh NNE 2.0 mph3.2 kmh 29.85 in1010.8 mb 0.00 in0.0 mm 0.00 in0.0 mm 0.00 in0.0 mm
10:20 AM 104.6°F40.3°C 35.0°F1.7°C 9% 1.4 mph SE2.3 kmh SE 4.0 mph6.4 kmh 29.85 in1010.8 mb 0.00 in0.0 mm 0.00 in0.0 mm 0.00 in0.0 mm
10:30 AM 104.9°F40.5°C 32.0°F0.0°C 8% 1.5 mph SE2.4 kmh SE 6.0 mph9.7 kmh 29.85 in1010.8 mb 0.00 in0.0 mm 0.00 in0.0 mm 0.00 in0.0 mm
10:40 AM 105.0°F40.6°C 35.0°F1.7°C 9% 1.7 mph SE2.7 kmh SE 5.0 mph8.0 kmh 29.85 in1010.8 mb 0.00 in0.0 mm 0.00 in0.0 mm 0.00 in0.0 mm
10:50 AM 105.3°F40.7°C 29.0°F-1.7°C 7% 2.0 mph SE3.2 kmh SE 6.0 mph9.7 kmh 29.85 in1010.8 mb 0.00 in0.0 mm 0.00 in0.0 mm 0.00 in0.0 mm
11:00 AM 104.9°F40.5°C 32.0°F0.0°C 8% 2.3 mph SW3.7 kmh SW 6.0 mph9.7 kmh 29.85 in1010.8 mb 0.00 in0.0 mm 0.00 in0.0 mm 0.00 in0.0 mm
11:10 AM 105.1°F40.6°C 33.0°F0.6°C 8% 2.3 mph SSW3.7 kmh SSW 6.0 mph9.7 kmh 29.85 in1010.8 mb 0.00 in0.0 mm 0.00 in0.0 mm 0.00 in0.0 mm
11:20 AM 105.8°F41.0°C 30.0°F-1.1°C 7% 2.6 mph S4.2 kmh S 8.0 mph12.9 kmh 29.84 in1010.5 mb 0.00 in0.0 mm 0.00 in0.0 mm 0.00 in0.0 mm
11:30 AM 106.2°F41.2°C 30.0°F-1.1°C 7% 2.0 mph S3.2 kmh S 5.0 mph8.0 kmh 29.84 in1010.5 mb 0.00 in0.0 mm 0.00 in0.0 mm 0.00 in0.0 mm
11:40 AM 106.6°F41.4°C 30.0°F-1.1°C 7% 2.0 mph SE3.2 kmh SE 6.0 mph9.7 kmh 29.83 in1010.2 mb 0.00 in0.0 mm 0.00 in0.0 mm 0.00 in0.0 mm
11:50 AM 107.3°F41.8°C 31.0°F-0.6°C 7% 2.2 mph SW3.5 kmh SW 5.0 mph8.0 kmh 29.83 in1010.2 mb 0.00 in0.0 mm 0.00 in0.0 mm 0.00 in0.0 mm
12:00 PM 106.5°F41.4°C 30.0°F-1.1°C 7% 3.5 mph SSW5.6 kmh SSW 10.0 mph16.1 kmh 29.83 in1010.2 mb 0.00 in0.0 mm 0.00 in0.0 mm 0.00 in0.0 mm
12:10 PM 105.8°F41.0°C 33.0°F0.6°C 8% 2.7 mph SSW4.3 kmh SSW 9.0 mph14.5 kmh 29.83 in1010.2 mb 0.00 in0.0 mm 0.00 in0.0 mm 0.00 in0.0 mm
12:20 PM 106.2°F41.2°C 33.0°F0.6°C 8% 3.4 mph S5.5 kmh S 11.0 mph17.7 kmh 29.82 in1009.8 mb 0.00 in0.0 mm 0.00 in0.0 mm 0.00 in0.0 mm
12:30 PM 107.2°F41.8°C 34.0°F1.1°C 8% 3.4 mph WSW5.5 kmh WSW 9.0 mph14.5 kmh 29.82 in1009.8 mb 0.00 in0.0 mm 0.00 in0.0 mm 0.00 in0.0 mm
12:40 PM 107.1°F41.7°C 31.0°F-0.6°C 7% 1.7 mph S2.7 kmh S 7.0 mph11.3 kmh 29.82 in1009.8 mb 0.00 in0.0 mm 0.00 in0.0 mm 0.00 in0.0 mm
12:50 PM 107.9°F42.2°C 31.0°F-0.6°C 7% 1.5 mph S2.4 kmh S 7.0 mph11.3 kmh 29.81 in1009.5 mb 0.00 in0.0 mm 0.00 in0.0 mm 0.00 in0.0 mm
01:00 PM 107.3°F41.8°C 31.0°F-0.6°C 7% 2.7 mph SSW4.3 kmh SSW 8.0 mph12.9 kmh 29.81 in1009.5 mb 0.00 in0.0 mm 0.00 in0.0 mm 0.00 in0.0 mm
01:10 PM 107.6°F42.0°C 31.0°F-0.6°C 7% 2.9 mph WSW4.7 kmh WSW 9.0 mph14.5 kmh 29.80 in1009.1 mb 0.00 in0.0 mm 0.00 in0.0 mm 0.00 in0.0 mm
01:20 PM 107.0°F41.7°C 34.0°F1.1°C 8% 1.8 mph N2.9 kmh N 5.0 mph8.0 kmh 29.80 in1009.1 mb 0.00 in0.0 mm 0.00 in0.0 mm 0.00 in0.0 mm
01:30 PM 108.1°F42.3°C 32.0°F0.0°C 7% 2.3 mph ENE3.7 kmh ENE 6.0 mph9.7 kmh 29.80 in1009.1 mb 0.00 in0.0 mm 0.00 in0.0 mm 0.00 in0.0 mm
01:40 PM 108.7°F42.6°C 32.0°F0.0°C 7% 3.0 mph NNW4.8 kmh NNW 10.0 mph16.1 kmh 29.79 in1008.8 mb 0.00 in0.0 mm 0.00 in0.0 mm 0.00 in0.0 mm
01:50 PM 108.2°F42.3°C 35.0°F1.7°C 8% 1.3 mph SSW2.1 kmh SSW 6.0 mph9.7 kmh 29.79 in1008.8 mb 0.00 in0.0 mm 0.00 in0.0 mm 0.00 in0.0 mm
02:00 PM 109.0°F42.8°C 32.0°F0.0°C 7% 2.2 mph SW3.5 kmh SW 9.0 mph14.5 kmh 29.79 in1008.8 mb 0.00 in0.0 mm 0.00 in0.0 mm 0.00 in0.0 mm
02:10 PM 108.9°F42.7°C 32.0°F0.0°C 7% 2.2 mph SSW3.5 kmh SSW 9.0 mph14.5 kmh 29.78 in1008.5 mb 0.00 in0.0 mm 0.00 in0.0 mm 0.00 in0.0 mm
02:20 PM 108.1°F42.3°C 35.0°F1.7°C 8% 3.9 mph SSW6.3 kmh SSW 9.0 mph14.5 kmh 29.77 in1008.1 mb 0.00 in0.0 mm 0.00 in0.0 mm 0.00 in0.0 mm
02:30 PM 108.4°F42.4°C 35.0°F1.7°C 8% 1.9 mph S3.1 kmh S 7.0 mph11.3 kmh 29.77 in1008.1 mb 0.00 in0.0 mm 0.00 in0.0 mm 0.00 in0.0 mm
02:40 PM 108.3°F42.4°C 35.0°F1.7°C 8% 4.0 mph SSW6.4 kmh SSW 9.0 mph14.5 kmh 29.76 in1007.8 mb 0.00 in0.0 mm 0.00 in0.0 mm 0.00 in0.0 mm
02:50 PM 109.1°F42.8°C 36.0°F2.2°C 8% 2.6 mph SW4.2 kmh SW 8.0 mph12.9 kmh 29.76 in1007.8 mb 0.00 in0.0 mm 0.00 in0.0 mm 0.00 in0.0 mm
03:00 PM 109.4°F43.0°C 33.0°F0.6°C 7% 2.2 mph NW3.5 kmh NW 9.0 mph14.5 kmh 29.76 in1007.8 mb 0.00 in0.0 mm 0.00 in0.0 mm 0.00 in0.0 mm
03:10 PM 109.6°F43.1°C 33.0°F0.6°C 7% 1.8 mph SW2.9 kmh SW 6.0 mph9.7 kmh 29.75 in1007.5 mb 0.00 in0.0 mm 0.00 in0.0 mm 0.00 in0.0 mm
03:20 PM 109.6°F43.1°C 33.0°F0.6°C 7% 2.1 mph SE3.4 kmh SE 10.0 mph16.1 kmh 29.75 in1007.5 mb 0.00 in0.0 mm 0.00 in0.0 mm 0.00 in0.0 mm
03:30 PM 108.7°F42.6°C 32.0°F0.0°C 7% 3.7 mph SSW6.0 kmh SSW 10.0 mph16.1 kmh 29.75 in1007.5 mb 0.00 in0.0 mm 0.00 in0.0 mm 0.00 in0.0 mm
03:40 PM 108.9°F42.7°C 36.0°F2.2°C 8% 3.0 mph SSW4.8 kmh SSW 9.0 mph14.5 kmh 29.74 in1007.1 mb 0.00 in0.0 mm 0.00 in0.0 mm 0.00 in0.0 mm
03:50 PM 108.7°F42.6°C 35.0°F1.7°C 8% 3.2 mph SSW5.1 kmh SSW 7.0 mph11.3 kmh 29.74 in1007.1 mb 0.00 in0.0 mm 0.00 in0.0 mm 0.00 in0.0 mm
04:00 PM 108.5°F42.5°C 35.0°F1.7°C 8% 4.5 mph SW7.2 kmh SW 11.0 mph17.7 kmh 29.74 in1007.1 mb 0.00 in0.0 mm 0.00 in0.0 mm 0.00 in0.0 mm
04:10 PM 108.3°F42.4°C 35.0°F1.7°C 8% 2.3 mph S3.7 kmh S 9.0 mph14.5 kmh 29.73 in1006.8 mb 0.00 in0.0 mm 0.00 in0.0 mm 0.00 in0.0 mm
04:20 PM 108.0°F42.2°C 35.0°F1.7°C 8% 2.7 mph SE4.3 kmh SE 10.0 mph16.1 kmh 29.73 in1006.8 mb 0.00 in0.0 mm 0.00 in0.0 mm 0.00 in0.0 mm
04:30 PM 108.8°F42.7°C 35.0°F1.7°C 8% 1.8 mph SW2.9 kmh SW 7.0 mph11.3 kmh 29.73 in1006.8 mb 0.00 in0.0 mm 0.00 in0.0 mm 0.00 in0.0 mm
04:40 PM 107.4°F41.9°C 37.0°F2.8°C 9% 3.4 mph S5.5 kmh S 9.0 mph14.5 kmh 29.73 in1006.8 mb 0.00 in0.0 mm 0.00 in0.0 mm 0.00 in0.0 mm
04:50 PM 107.6°F42.0°C 37.0°F2.8°C 9% 2.5 mph S4.0 kmh S 8.0 mph12.9 kmh 29.72 in1006.4 mb 0.00 in0.0 mm 0.00 in0.0 mm 0.00 in0.0 mm
05:00 PM 107.4°F41.9°C 37.0°F2.8°C 9% 2.1 mph SSW3.4 kmh SSW 6.0 mph9.7 kmh 29.72 in1006.4 mb 0.00 in0.0 mm 0.00 in0.0 mm 0.00 in0.0 mm
05:10 PM 107.3°F41.8°C 34.0°F1.1°C 8% 1.3 mph ESE2.1 kmh ESE 9.0 mph14.5 kmh 29.72 in1006.4 mb 0.00 in0.0 mm 0.00 in0.0 mm 0.00 in0.0 mm
05:20 PM 107.0°F41.7°C 37.0°F2.8°C 9% 2.1 mph S3.4 kmh S 9.0 mph14.5 kmh 29.72 in1006.4 mb 0.00 in0.0 mm 0.00 in0.0 mm 0.00 in0.0 mm
05:30 PM 106.5°F41.4°C 37.0°F2.8°C 9% 3.0 mph SW4.8 kmh SW 9.0 mph14.5 kmh 29.72 in1006.4 mb 0.00 in0.0 mm 0.00 in0.0 mm 0.00 in0.0 mm
05:40 PM 106.4°F41.3°C 37.0°F2.8°C 9% 2.2 mph SSE3.5 kmh SSE 6.0 mph9.7 kmh 29.71 in1006.1 mb 0.00 in0.0 mm 0.00 in0.0 mm 0.00 in0.0 mm
05:50 PM 106.5°F41.4°C 34.0°F1.1°C 8% 2.3 mph S3.7 kmh S 8.0 mph12.9 kmh 29.71 in1006.1 mb 0.00 in0.0 mm 0.00 in0.0 mm 0.00 in0.0 mm
06:00 PM 106.3°F41.3°C 34.0°F1.1°C 8% 2.8 mph SW4.5 kmh SW 12.0 mph19.3 kmh 29.71 in1006.1 mb 0.00 in0.0 mm 0.00 in0.0 mm 0.00 in0.0 mm
06:10 PM 106.1°F41.2°C 33.0°F0.6°C 8% 2.9 mph SSW4.7 kmh SSW 9.0 mph14.5 kmh 29.71 in1006.1 mb 0.00 in0.0 mm 0.00 in0.0 mm 0.00 in0.0 mm
06:20 PM 105.7°F40.9°C 36.0°F2.2°C 9% 2.3 mph SSW3.7 kmh SSW 5.0 mph8.0 kmh 29.71 in1006.1 mb 0.00 in0.0 mm 0.00 in0.0 mm 0.00 in0.0 mm
06:30 PM 105.4°F40.8°C 36.0°F2.2°C 9% 3.0 mph SE4.8 kmh SE 8.0 mph12.9 kmh 29.71 in1006.1 mb 0.00 in0.0 mm 0.00 in0.0 mm 0.00 in0.0 mm
06:40 PM 105.0°F40.6°C 35.0°F1.7°C 9% 2.0 mph SW3.2 kmh SW 6.0 mph9.7 kmh 29.72 in1006.4 mb 0.00 in0.0 mm 0.00 in0.0 mm 0.00 in0.0 mm
06:50 PM 104.5°F40.3°C 32.0°F0.0°C 8% 2.5 mph SSW4.0 kmh SSW 7.0 mph11.3 kmh 29.72 in1006.4 mb 0.00 in0.0 mm 0.00 in0.0 mm 0.00 in0.0 mm
07:00 PM 104.0°F40.0°C 35.0°F1.7°C 9% 2.0 mph SW3.2 kmh SW 7.0 mph11.3 kmh 29.72 in1006.4 mb 0.00 in0.0 mm 0.00 in0.0 mm 0.00 in0.0 mm
07:10 PM 103.4°F39.7°C 34.0°F1.1°C 9% 2.5 mph SW4.0 kmh SW 7.0 mph11.3 kmh 29.72 in1006.4 mb 0.00 in0.0 mm 0.00 in0.0 mm 0.00 in0.0 mm
07:20 PM 102.8°F39.3°C 34.0°F1.1°C 9% 1.5 mph SW2.4 kmh SW 3.0 mph4.8 kmh 29.72 in1006.4 mb 0.00 in0.0 mm 0.00 in0.0 mm 0.00 in0.0 mm
07:30 PM 102.0°F38.9°C 33.0°F0.6°C 9% 1.5 mph SSW2.4 kmh SSW 4.0 mph6.4 kmh 29.73 in1006.8 mb 0.00 in0.0 mm 0.00 in0.0 mm 0.00 in0.0 mm
07:40 PM 101.3°F38.5°C 35.0°F1.7°C 10% 1.4 mph S2.3 kmh S 4.0 mph6.4 kmh 29.72 in1006.4 mb 0.00 in0.0 mm 0.00 in0.0 mm 0.00 in0.0 mm
07:50 PM 100.8°F38.2°C 35.0°F1.7°C 10% 1.6 mph SSE2.6 kmh SSE 5.0 mph8.0 kmh 29.73 in1006.8 mb 0.00 in0.0 mm 0.00 in0.0 mm 0.00 in0.0 mm
08:00 PM 100.5°F38.1°C 35.0°F1.7°C 10% 2.1 mph SW3.4 kmh SW 5.0 mph8.0 kmh 29.73 in1006.8 mb 0.00 in0.0 mm 0.00 in0.0 mm 0.00 in0.0 mm
08:10 PM 99.8°F37.7°C 36.0°F2.2°C 11% 1.2 mph SW1.9 kmh SW 4.0 mph6.4 kmh 29.73 in1006.8 mb 0.00 in0.0 mm 0.00 in0.0 mm 0.00 in0.0 mm
08:20 PM 99.2°F37.3°C 36.0°F2.2°C 11% 0.3 mph SW0.5 kmh SW 2.0 mph3.2 kmh 29.73 in1006.8 mb 0.00 in0.0 mm 0.00 in0.0 mm 0.00 in0.0 mm
08:30 PM 98.5°F36.9°C 38.0°F3.3°C 12% 0.1 mph SSW0.2 kmh SSW 1.0 mph1.6 kmh 29.74 in1007.1 mb 0.00 in0.0 mm 0.00 in0.0 mm 0.00 in0.0 mm
08:40 PM 97.5°F36.4°C 37.0°F2.8°C 12% Calm Calm -- 29.74 in1007.1 mb 0.00 in0.0 mm 0.00 in0.0 mm 0.00 in0.0 mm
08:50 PM 95.9°F35.5°C 38.0°F3.3°C 13% Calm Calm -- 29.74 in1007.1 mb 0.00 in0.0 mm 0.00 in0.0 mm 0.00 in0.0 mm
09:00 PM 94.6°F34.8°C 37.0°F2.8°C 13% Calm Calm -- 29.75 in1007.5 mb 0.00 in0.0 mm 0.00 in0.0 mm 0.00 in0.0 mm
09:10 PM 93.7°F34.3°C 38.0°F3.3°C 14% Calm Calm -- 29.75 in1007.5 mb 0.00 in0.0 mm 0.00 in0.0 mm 0.00 in0.0 mm
09:20 PM 93.7°F34.3°C 38.0°F3.3°C 14% Calm Calm 1.0 mph1.6 kmh 29.75 in1007.5 mb 0.00 in0.0 mm 0.00 in0.0 mm 0.00 in0.0 mm
09:30 PM 93.3°F34.1°C 37.0°F2.8°C 14% Calm Calm -- 29.75 in1007.5 mb 0.00 in0.0 mm 0.00 in0.0 mm 0.00 in0.0 mm
09:40 PM 93.1°F33.9°C 37.0°F2.8°C 14% Calm Calm -- 29.75 in1007.5 mb 0.00 in0.0 mm 0.00 in0.0 mm 0.00 in0.0 mm
09:50 PM 93.1°F33.9°C 37.0°F2.8°C 14% Calm Calm 1.0 mph1.6 kmh 29.75 in1007.5 mb 0.00 in0.0 mm 0.00 in0.0 mm 0.00 in0.0 mm
10:00 PM 92.3°F33.5°C 38.0°F3.3°C 15% Calm Calm -- 29.75 in1007.5 mb 0.00 in0.0 mm 0.00 in0.0 mm 0.00 in0.0 mm
10:10 PM 91.5°F33.1°C 38.0°F3.3°C 15% Calm Calm -- 29.75 in1007.5 mb 0.00 in0.0 mm 0.00 in0.0 mm 0.00 in0.0 mm
10:20 PM 90.4°F32.4°C 38.0°F3.3°C 16% Calm Calm -- 29.75 in1007.5 mb 0.00 in0.0 mm 0.00 in0.0 mm 0.00 in0.0 mm
10:30 PM 90.4°F32.4°C 37.0°F2.8°C 15% 0.8 mph NNE1.3 kmh NNE 3.0 mph4.8 kmh 29.75 in1007.5 mb 0.00 in0.0 mm 0.00 in0.0 mm 0.00 in0.0 mm
10:40 PM 91.4°F33.0°C 38.0°F3.3°C 15% 0.9 mph NE1.4 kmh NE 2.0 mph3.2 kmh 29.75 in1007.5 mb 0.00 in0.0 mm 0.00 in0.0 mm 0.00 in0.0 mm
10:50 PM 91.4°F33.0°C 38.0°F3.3°C 15% 0.1 mph NNE0.2 kmh NNE 1.0 mph1.6 kmh 29.75 in1007.5 mb 0.00 in0.0 mm 0.00 in0.0 mm 0.00 in0.0 mm
11:00 PM 91.0°F32.8°C 37.0°F2.8°C 15% 0.4 mph N0.6 kmh N 2.0 mph3.2 kmh 29.75 in1007.5 mb 0.00 in0.0 mm 0.00 in0.0 mm 0.00 in0.0 mm
11:10 PM 90.0°F32.2°C 36.0°F2.2°C 15% 0.5 mph NNE0.8 kmh NNE 3.0 mph4.8 kmh 29.75 in1007.5 mb 0.00 in0.0 mm 0.00 in0.0 mm 0.00 in0.0 mm
11:20 PM 90.1°F32.3°C 37.0°F2.8°C 15% 1.5 mph NNE2.4 kmh NNE 3.0 mph4.8 kmh 29.75 in1007.5 mb 0.00 in0.0 mm 0.00 in0.0 mm 0.00 in0.0 mm
11:30 PM 90.5°F32.5°C 37.0°F2.8°C 15% 1.2 mph N1.9 kmh N 3.0 mph4.8 kmh 29.75 in1007.5 mb 0.00 in0.0 mm 0.00 in0.0 mm 0.00 in0.0 mm
11:40 PM 89.8°F32.1°C 36.0°F2.2°C 15% 2.8 mph NNE4.5 kmh NNE 5.0 mph8.0 kmh 29.75 in1007.5 mb 0.00 in0.0 mm 0.00 in0.0 mm 0.00 in0.0 mm
11:50 PM 88.7°F31.5°C 37.0°F2.8°C 16% 2.7 mph N4.3 kmh N 4.0 mph6.4 kmh 29.74 in1007.1 mb 0.00 in0.0 mm 0.00 in0.0 mm 0.00 in0.0 mm